Time;durP1;ratioP1;P1;durP2;ratioP2;P2;SDS_P1;SDS_P2;PMS_P1;PMS_P2;Temp;Humidity;BMP_temperature;BMP_pressure;BME280_temperature;BME280_humidity;BME280_pressure;Samples;Min_cycle;Max_cycle;Signal;HPM_P1;HPM_P2
2021/03/09 00:00:04;;;;;;;107.00;37.83;;;;;;;;;;5051588;28;20098;-67
2021/03/09 00:02:29;;;;;;;103.35;37.95;;;;;;;;;;5051499;28;20051;-67
2021/03/09 00:04:54;;;;;;;106.18;37.15;;;;;;;;;;5051392;28;20045;-67
2021/03/09 00:07:19;;;;;;;112.20;38.08;;;;;;;;;;5050521;28;20469;-67
2021/03/09 00:09:45;;;;;;;111.00;37.50;;;;;;;;;;5050842;28;20075;-67
2021/03/09 00:12:10;;;;;;;99.55;36.60;;;;;;;;;;5051851;28;20822;-67
2021/03/09 00:14:35;;;;;;;105.65;37.10;;;;;;;;;;5042824;28;20071;-67
2021/03/09 00:17:00;;;;;;;95.70;35.40;;;;;;;;;;5042877;28;20025;-67
2021/03/09 00:19:25;;;;;;;99.50;36.00;;;;;;;;;;5044777;28;20026;-67
2021/03/09 00:21:51;;;;;;;104.03;36.80;;;;;;;;;;5044425;28;20028;-67
2021/03/09 00:24:16;;;;;;;107.20;36.65;;;;;;;;;;5050736;28;20074;-67
2021/03/09 00:26:41;;;;;;;98.53;34.03;;;;;;;;;;5051413;28;20032;-67
2021/03/09 00:29:06;;;;;;;105.88;36.28;;;;;;;;;;5048359;28;20103;-66
2021/03/09 00:31:32;;;;;;;105.28;34.63;;;;;;;;;;5042053;28;20052;-67
2021/03/09 00:33:57;;;;;;;114.22;37.45;;;;;;;;;;5051230;28;20028;-66
2021/03/09 00:36:22;;;;;;;106.47;35.95;;;;;;;;;;5050511;28;20020;-66
2021/03/09 00:38:47;;;;;;;106.30;37.70;;;;;;;;;;5050747;28;20075;-66
2021/03/09 00:41:12;;;;;;;100.57;35.03;;;;;;;;;;5050779;28;20040;-66
2021/03/09 00:43:37;;;;;;;105.32;37.10;;;;;;;;;;5050682;28;20024;-66
2021/03/09 00:46:03;;;;;;;111.38;39.03;;;;;;;;;;5051079;28;20017;-67
2021/03/09 00:48:38;;;;;;;106.65;36.47;;;;;;;;;;5050437;28;20866;-67
2021/03/09 00:51:03;;;;;;;101.40;34.90;;;;;;;;;;5050705;28;20024;-66
2021/03/09 00:53:28;;;;;;;98.55;34.30;;;;;;;;;;5050208;28;20021;-66
2021/03/09 00:55:53;;;;;;;112.30;36.75;;;;;;;;;;5050527;28;20107;-67
2021/03/09 00:58:19;;;;;;;108.97;36.55;;;;;;;;;;5050255;28;20025;-66
2021/03/09 01:00:44;;;;;;;106.28;36.13;;;;;;;;;;5050966;28;20484;-66
2021/03/09 01:03:09;;;;;;;111.40;37.30;;;;;;;;;;5050154;28;20021;-66
2021/03/09 01:05:34;;;;;;;98.63;36.70;;;;;;;;;;5050124;28;20032;-66
2021/03/09 01:07:59;;;;;;;116.85;42.70;;;;;;;;;;5050648;28;20086;-66
2021/03/09 01:10:25;;;;;;;109.95;39.20;;;;;;;;;;5032819;28;20052;-66
2021/03/09 01:12:50;;;;;;;108.43;34.53;;;;;;;;;;5050813;28;20024;-66
2021/03/09 01:15:15;;;;;;;98.75;36.90;;;;;;;;;;5050161;28;20810;-66
2021/03/09 01:17:40;;;;;;;109.60;34.95;;;;;;;;;;5049860;28;20056;-66
2021/03/09 01:20:07;;;;;;;97.22;34.95;;;;;;;;;;5050182;28;20443;-67
2021/03/09 01:22:32;;;;;;;113.90;38.80;;;;;;;;;;5050809;28;20071;-66
2021/03/09 01:24:57;;;;;;;109.65;36.60;;;;;;;;;;5050296;28;20048;-67
2021/03/09 01:27:22;;;;;;;107.07;39.58;;;;;;;;;;5049328;28;20352;-67
2021/03/09 01:29:48;;;;;;;113.95;38.40;;;;;;;;;;5049697;28;20025;-66
2021/03/09 01:32:13;;;;;;;102.45;36.35;;;;;;;;;;5048953;28;20021;-66
2021/03/09 01:34:38;;;;;;;102.45;36.40;;;;;;;;;;5049812;28;20524;-66
2021/03/09 01:37:03;;;;;;;106.38;39.40;;;;;;;;;;5049995;28;20108;-66
2021/03/09 01:39:29;;;;;;;96.25;36.70;;;;;;;;;;5049440;28;20036;-66
2021/03/09 01:41:54;;;;;;;116.10;38.15;;;;;;;;;;5049639;28;20082;-67
2021/03/09 01:44:19;;;;;;;116.40;38.60;;;;;;;;;;5034734;28;20025;-66
2021/03/09 01:46:45;;;;;;;113.18;38.53;;;;;;;;;;5050242;28;20033;-66
2021/03/09 01:49:11;;;;;;;109.15;36.25;;;;;;;;;;5049459;28;20040;-67
2021/03/09 01:51:36;;;;;;;102.85;38.40;;;;;;;;;;5050218;28;20025;-66
2021/03/09 01:54:02;;;;;;;110.97;39.20;;;;;;;;;;5049791;28;20154;-66
2021/03/09 01:56:27;;;;;;;101.32;36.78;;;;;;;;;;5048801;28;20021;-66
2021/03/09 01:58:53;;;;;;;112.97;39.58;;;;;;;;;;5048515;28;20040;-66
2021/03/09 02:01:18;;;;;;;114.93;37.03;;;;;;;;;;5049787;28;20067;-67
2021/03/09 02:03:44;;;;;;;113.97;40.00;;;;;;;;;;5049512;28;20021;-67
2021/03/09 02:06:12;;;;;;;117.22;39.33;;;;;;;;;;5053085;28;20489;-67
2021/03/09 02:08:37;;;;;;;94.22;33.53;;;;;;;;;;5054375;28;20559;-67
2021/03/09 02:11:06;;;;;;;103.95;35.17;;;;;;;;;;5051909;28;20025;-67
2021/03/09 02:13:50;;;;;;;101.15;36.38;;;;;;;;;;5052919;28;20031;-67
2021/03/09 02:16:25;;;;;;;108.07;37.05;;;;;;;;;;5052939;28;20092;-67
2021/03/09 02:18:53;;;;;;;107.32;33.33;;;;;;;;;;5052653;28;20120;-67
2021/03/09 02:21:27;;;;;;;116.15;35.83;;;;;;;;;;5053419;28;20029;-67
2021/03/09 02:24:10;;;;;;;100.65;36.50;;;;;;;;;;5053518;28;20653;-67
2021/03/09 02:26:42;;;;;;;107.68;36.60;;;;;;;;;;5053168;28;20035;-67
2021/03/09 02:29:26;;;;;;;114.22;39.72;;;;;;;;;;5053488;28;20028;-67
2021/03/09 02:31:53;;;;;;;106.03;38.70;;;;;;;;;;5047086;28;20115;-67
2021/03/09 02:34:22;;;;;;;118.32;41.03;;;;;;;;;;5053620;28;20020;-67
2021/03/09 02:36:47;;;;;;;107.97;37.47;;;;;;;;;;5053459;28;20099;-67
2021/03/09 02:39:13;;;;;;;112.78;40.38;;;;;;;;;;5052005;28;20103;-67
2021/03/09 02:41:42;;;;;;;114.20;37.90;;;;;;;;;;5053247;28;20072;-67
2021/03/09 02:44:08;;;;;;;119.70;43.85;;;;;;;;;;5051610;28;20009;-67
2021/03/09 02:46:34;;;;;;;112.75;40.33;;;;;;;;;;5050593;28;20033;-67
2021/03/09 02:48:59;;;;;;;124.97;41.05;;;;;;;;;;5050928;28;20032;-67
2021/03/09 02:51:26;;;;;;;123.15;42.42;;;;;;;;;;5051342;28;20029;-67
2021/03/09 02:53:53;;;;;;;126.80;44.22;;;;;;;;;;5050962;28;20393;-67
2021/03/09 02:56:18;;;;;;;115.35;42.75;;;;;;;;;;5049750;28;20020;-67
2021/03/09 02:58:44;;;;;;;96.40;37.17;;;;;;;;;;5034435;28;20025;-67
2021/03/09 03:01:10;;;;;;;122.28;40.00;;;;;;;;;;5050440;28;20100;-67
2021/03/09 03:03:38;;;;;;;114.05;39.78;;;;;;;;;;5050683;28;20108;-67
2021/03/09 03:06:04;;;;;;;113.35;39.22;;;;;;;;;;5049239;28;20025;-66
2021/03/09 03:08:30;;;;;;;120.43;40.80;;;;;;;;;;5052425;28;20035;-67
2021/03/09 03:10:56;;;;;;;116.18;40.20;;;;;;;;;;5052432;28;20078;-66
2021/03/09 03:13:23;;;;;;;114.72;40.50;;;;;;;;;;5050988;28;20029;-66
2021/03/09 03:15:49;;;;;;;115.75;41.58;;;;;;;;;;5051850;28;20104;-66
2021/03/09 03:18:15;;;;;;;111.57;42.00;;;;;;;;;;5052050;28;20025;-66
2021/03/09 03:20:41;;;;;;;121.93;41.83;;;;;;;;;;5052156;28;20381;-66
2021/03/09 03:23:07;;;;;;;125.78;44.67;;;;;;;;;;5070535;28;20041;-66
2021/03/09 03:25:32;;;;;;;114.18;37.25;;;;;;;;;;5052688;28;20108;-66
2021/03/09 03:27:58;;;;;;;127.82;45.30;;;;;;;;;;5051961;28;20029;-66
2021/03/09 03:30:24;;;;;;;119.00;43.35;;;;;;;;;;5047216;28;20020;-66
2021/03/09 03:32:49;;;;;;;120.07;41.45;;;;;;;;;;5052156;28;20132;-66
2021/03/09 03:35:15;;;;;;;108.22;40.08;;;;;;;;;;5051780;28;20088;-66
2021/03/09 03:37:41;;;;;;;122.47;36.83;;;;;;;;;;5051982;28;20052;-66
2021/03/09 03:40:10;;;;;;;120.28;43.70;;;;;;;;;;5052295;28;20126;-66
2021/03/09 03:42:36;;;;;;;109.53;38.00;;;;;;;;;;5052500;28;20029;-66
2021/03/09 03:45:02;;;;;;;123.88;42.80;;;;;;;;;;5051374;28;20029;-66
2021/03/09 03:47:27;;;;;;;128.70;45.30;;;;;;;;;;5051410;28;20381;-66
2021/03/09 03:49:53;;;;;;;123.50;42.50;;;;;;;;;;5051499;28;20029;-66
2021/03/09 03:52:24;;;;;;;133.85;40.97;;;;;;;;;;5052162;28;20492;-66
2021/03/09 03:54:58;;;;;;;126.07;45.03;;;;;;;;;;5047808;28;20118;-66
2021/03/09 03:57:30;;;;;;;114.78;41.25;;;;;;;;;;5050761;28;20044;-66
2021/03/09 03:59:56;;;;;;;125.40;44.35;;;;;;;;;;5051291;28;20020;-66
2021/03/09 04:02:22;;;;;;;128.27;39.17;;;;;;;;;;5051166;28;20021;-66
2021/03/09 04:04:49;;;;;;;120.53;41.65;;;;;;;;;;5051718;28;20424;-66
2021/03/09 04:07:18;;;;;;;125.60;42.55;;;;;;;;;;5051154;28;20025;-66
2021/03/09 04:09:44;;;;;;;123.38;40.13;;;;;;;;;;5049200;28;20021;-67
2021/03/09 04:12:10;;;;;;;120.60;35.95;;;;;;;;;;5050566;28;20024;-66
2021/03/09 04:14:35;;;;;;;118.25;41.05;;;;;;;;;;5050270;28;20441;-66
2021/03/09 04:17:02;;;;;;;124.30;42.45;;;;;;;;;;5050254;28;20081;-66
2021/03/09 04:19:28;;;;;;;122.00;41.80;;;;;;;;;;5048621;28;20021;-67
2021/03/09 04:21:53;;;;;;;126.50;45.08;;;;;;;;;;5049152;28;20842;-67
2021/03/09 04:24:19;;;;;;;126.63;43.22;;;;;;;;;;5049895;28;20017;-68
2021/03/09 04:26:45;;;;;;;131.75;45.50;;;;;;;;;;5050467;28;20052;-68
2021/03/09 04:29:11;;;;;;;126.30;44.20;;;;;;;;;;5049970;28;20455;-67
2021/03/09 04:31:37;;;;;;;130.45;43.40;;;;;;;;;;5048580;28;20033;-67
2021/03/09 04:34:03;;;;;;;124.72;42.28;;;;;;;;;;5050216;28;20025;-68
2021/03/09 04:36:29;;;;;;;118.25;41.47;;;;;;;;;;5046529;28;20078;-68
2021/03/09 04:38:54;;;;;;;124.82;43.63;;;;;;;;;;5049601;28;20031;-68
2021/03/09 04:41:19;;;;;;;125.97;41.30;;;;;;;;;;5050215;28;20024;-68
2021/03/09 04:43:45;;;;;;;123.80;42.75;;;;;;;;;;5050156;28;20351;-68
2021/03/09 04:46:10;;;;;;;130.18;39.00;;;;;;;;;;5048679;28;20608;-68
2021/03/09 04:48:39;;;;;;;135.25;46.22;;;;;;;;;;5048605;28;20029;-68
2021/03/09 04:51:09;;;;;;;125.95;41.05;;;;;;;;;;5049937;28;20040;-68
2021/03/09 04:53:35;;;;;;;103.75;36.95;;;;;;;;;;5049888;28;20020;-68
2021/03/09 04:56:00;;;;;;;128.10;47.20;;;;;;;;;;5049382;28;20462;-68
2021/03/09 04:58:25;;;;;;;124.50;42.13;;;;;;;;;;5049689;28;20101;-68
2021/03/09 05:00:51;;;;;;;142.63;48.40;;;;;;;;;;5048949;28;20017;-68
2021/03/09 05:03:16;;;;;;;116.85;39.03;;;;;;;;;;5044527;28;20056;-68
2021/03/09 05:05:41;;;;;;;125.38;39.55;;;;;;;;;;5047974;28;20025;-68
2021/03/09 05:08:07;;;;;;;128.65;43.15;;;;;;;;;;5030011;28;559670;-68
2021/03/09 05:10:32;;;;;;;121.35;40.47;;;;;;;;;;5050045;28;20111;-68
2021/03/09 05:12:57;;;;;;;119.60;41.85;;;;;;;;;;5050483;28;20025;-67
2021/03/09 05:15:23;;;;;;;117.07;39.65;;;;;;;;;;5049887;28;20016;-67
2021/03/09 05:17:48;;;;;;;144.70;46.78;;;;;;;;;;5049366;28;20021;-67
2021/03/09 05:20:13;;;;;;;117.10;35.03;;;;;;;;;;5050188;28;20079;-67
2021/03/09 05:22:39;;;;;;;118.85;40.88;;;;;;;;;;5050701;28;20493;-67
2021/03/09 05:25:05;;;;;;;131.70;43.47;;;;;;;;;;5041569;28;20029;-67
2021/03/09 05:27:30;;;;;;;133.13;40.60;;;;;;;;;;5048305;28;20021;-67
2021/03/09 05:29:55;;;;;;;130.85;45.58;;;;;;;;;;5049275;28;20397;-67
2021/03/09 05:32:21;;;;;;;123.70;38.55;;;;;;;;;;5049431;28;20032;-67
2021/03/09 05:34:46;;;;;;;104.32;33.45;;;;;;;;;;5047963;28;20028;-67
2021/03/09 05:37:11;;;;;;;88.70;31.23;;;;;;;;;;5049853;28;20370;-67
2021/03/09 05:39:37;;;;;;;119.13;38.85;;;;;;;;;;5048316;28;20029;-67
2021/03/09 05:42:05;;;;;;;119.90;43.72;;;;;;;;;;5048637;28;20025;-67
2021/03/09 05:44:32;;;;;;;77.78;27.20;;;;;;;;;;5048278;28;20417;-67
2021/03/09 05:46:57;;;;;;;122.22;40.70;;;;;;;;;;5049668;28;20021;-68
2021/03/09 05:49:22;;;;;;;138.85;45.60;;;;;;;;;;5048696;28;20100;-68
2021/03/09 05:51:48;;;;;;;132.73;43.67;;;;;;;;;;5049434;28;20017;-67
2021/03/09 05:54:13;;;;;;;140.57;43.92;;;;;;;;;;5047726;28;20074;-67
2021/03/09 05:56:38;;;;;;;125.47;45.92;;;;;;;;;;5048913;28;20056;-66
2021/03/09 05:59:04;;;;;;;127.25;40.80;;;;;;;;;;5044987;28;20087;-66
2021/03/09 06:01:30;;;;;;;137.65;48.13;;;;;;;;;;5047418;28;20025;-66
2021/03/09 06:03:57;;;;;;;132.52;43.60;;;;;;;;;;5047461;28;20140;-68
2021/03/09 06:06:22;;;;;;;133.50;42.35;;;;;;;;;;5047530;28;20044;-68
2021/03/09 06:08:47;;;;;;;114.05;38.88;;;;;;;;;;5047656;28;20108;-68
2021/03/09 06:11:13;;;;;;;124.70;44.22;;;;;;;;;;5046305;28;20025;-68
2021/03/09 06:13:38;;;;;;;140.30;44.50;;;;;;;;;;5047109;28;20031;-68
2021/03/09 06:16:03;;;;;;;135.55;40.55;;;;;;;;;;5047020;28;20389;-68
2021/03/09 06:18:28;;;;;;;133.95;43.38;;;;;;;;;;5047755;28;20139;-67
2021/03/09 06:21:06;;;;;;;130.73;44.70;;;;;;;;;;5047705;28;20064;-67
2021/03/09 06:23:32;;;;;;;96.68;33.00;;;;;;;;;;5043338;28;20021;-68
2021/03/09 06:25:57;;;;;;;121.10;35.73;;;;;;;;;;5047318;28;20020;-68
2021/03/09 06:28:28;;;;;;;144.32;49.08;;;;;;;;;;5045791;28;20367;-68
2021/03/09 06:30:54;;;;;;;102.60;34.40;;;;;;;;;;5042480;28;20040;-69
2021/03/09 06:33:26;;;;;;;124.38;43.97;;;;;;;;;;5046044;28;20025;-68
2021/03/09 06:35:51;;;;;;;124.10;39.38;;;;;;;;;;5041609;28;20028;-68
2021/03/09 06:38:17;;;;;;;133.55;43.92;;;;;;;;;;5039903;28;20033;-68
2021/03/09 06:40:43;;;;;;;135.23;42.15;;;;;;;;;;5040190;28;20022;-68
2021/03/09 06:43:18;;;;;;;127.63;43.65;;;;;;;;;;5043598;28;20024;-68
2021/03/09 06:45:43;;;;;;;140.63;48.85;;;;;;;;;;5046817;28;20039;-68
2021/03/09 06:48:18;;;;;;;129.60;40.15;;;;;;;;;;5046497;28;20017;-68
2021/03/09 06:50:44;;;;;;;133.45;41.55;;;;;;;;;;5047286;28;20021;-68
2021/03/09 06:53:09;;;;;;;136.15;45.83;;;;;;;;;;5049624;28;20021;-68
2021/03/09 06:55:34;;;;;;;117.47;40.85;;;;;;;;;;5050689;28;20027;-68
2021/03/09 06:58:07;;;;;;;154.98;49.10;;;;;;;;;;5050024;28;20032;-68
2021/03/09 07:00:33;;;;;;;131.48;44.65;;;;;;;;;;5048419;28;20099;-69
2021/03/09 07:02:58;;;;;;;130.15;48.45;;;;;;;;;;5049409;28;20607;-68
2021/03/09 07:05:23;;;;;;;124.90;42.00;;;;;;;;;;5050179;28;20410;-68
2021/03/09 07:07:49;;;;;;;150.18;49.95;;;;;;;;;;5049437;28;20265;-68
2021/03/09 07:10:18;;;;;;;134.57;46.47;;;;;;;;;;5050555;28;20117;-68
2021/03/09 07:12:44;;;;;;;135.18;44.45;;;;;;;;;;5049721;28;20029;-68
2021/03/09 07:15:10;;;;;;;103.50;34.45;;;;;;;;;;5049094;28;20122;-68
2021/03/09 07:17:37;;;;;;;77.63;26.95;;;;;;;;;;5049398;28;20048;-68
2021/03/09 07:20:07;;;;;;;125.68;40.72;;;;;;;;;;5047625;28;20029;-69
2021/03/09 07:22:32;;;;;;;145.95;47.90;;;;;;;;;;5050136;28;20045;-69
2021/03/09 07:24:58;;;;;;;152.80;48.17;;;;;;;;;;5050013;28;20111;-69
2021/03/09 07:27:43;;;;;;;126.47;40.42;;;;;;;;;;5049363;28;20105;-69
2021/03/09 07:30:10;;;;;;;133.63;44.67;;;;;;;;;;5041643;28;20485;-69
2021/03/09 07:32:36;;;;;;;154.05;51.40;;;;;;;;;;5048620;28;21044;-69
2021/03/09 07:35:01;;;;;;;133.88;45.40;;;;;;;;;;5043351;28;20029;-69
2021/03/09 07:37:27;;;;;;;125.57;43.53;;;;;;;;;;5048905;28;20021;-70
2021/03/09 07:39:53;;;;;;;62.35;24.65;;;;;;;;;;5041001;28;20020;-69
2021/03/09 07:42:19;;;;;;;113.60;38.92;;;;;;;;;;5050270;28;20040;-69
2021/03/09 07:44:45;;;;;;;136.13;46.45;;;;;;;;;;5050124;28;20393;-69
2021/03/09 07:47:11;;;;;;;136.40;41.05;;;;;;;;;;5051741;28;20051;-69
2021/03/09 07:49:38;;;;;;;57.72;22.27;;;;;;;;;;5051067;28;20032;-70
2021/03/09 07:52:10;;;;;;;145.02;49.78;;;;;;;;;;5051067;28;20025;-69
2021/03/09 07:54:37;;;;;;;134.55;51.10;;;;;;;;;;5049460;28;20099;-69
2021/03/09 07:57:21;;;;;;;147.82;48.83;;;;;;;;;;5051309;28;20078;-69
2021/03/09 07:59:55;;;;;;;134.85;43.53;;;;;;;;;;5048534;28;20025;-69
2021/03/09 08:02:39;;;;;;;113.28;35.92;;;;;;;;;;5048075;28;20024;-69
2021/03/09 08:05:09;;;;;;;100.20;31.45;;;;;;;;;;5051010;28;20014;-69
2021/03/09 08:07:54;;;;;;;140.48;45.75;;;;;;;;;;5050916;28;20025;-68
2021/03/09 08:10:25;;;;;;;123.53;38.95;;;;;;;;;;5050954;28;20043;-68
2021/03/09 08:12:50;;;;;;;127.90;41.30;;;;;;;;;;5042051;28;20029;-68
2021/03/09 08:15:19;;;;;;;153.48;51.03;;;;;;;;;;5049125;28;20025;-69
2021/03/09 08:17:44;;;;;;;139.93;43.20;;;;;;;;;;5050489;28;20393;-68
2021/03/09 08:20:29;;;;;;;87.63;30.30;;;;;;;;;;5050714;28;20025;-68
2021/03/09 08:22:54;;;;;;;95.97;30.98;;;;;;;;;;5050125;28;20291;-68
2021/03/09 08:25:36;;;;;;;78.68;26.95;;;;;;;;;;5050324;28;20071;-68
2021/03/09 08:28:21;;;;;;;91.63;30.27;;;;;;;;;;5042444;28;20433;-68
2021/03/09 08:30:47;;;;;;;101.50;35.38;;;;;;;;;;5047412;28;20025;-68
2021/03/09 08:33:25;;;;;;;116.60;44.22;;;;;;;;;;5051299;28;20028;-68
2021/03/09 08:35:50;;;;;;;96.00;32.85;;;;;;;;;;5050531;28;20481;-68
2021/03/09 08:38:16;;;;;;;106.15;34.78;;;;;;;;;;5050481;28;20071;-68
2021/03/09 08:40:58;;;;;;;108.10;39.20;;;;;;;;;;5050823;28;20028;-68
2021/03/09 08:43:23;;;;;;;86.97;27.77;;;;;;;;;;5050704;28;20108;-68
2021/03/09 08:45:55;;;;;;;102.57;37.53;;;;;;;;;;5050712;28;20096;-68
2021/03/09 08:48:39;;;;;;;123.53;43.20;;;;;;;;;;5048041;28;20509;-68
2021/03/09 08:51:04;;;;;;;70.38;22.38;;;;;;;;;;5050555;28;20029;-68
2021/03/09 08:53:31;;;;;;;97.40;28.92;;;;;;;;;;5050551;28;20126;-68
2021/03/09 08:55:56;;;;;;;77.07;26.85;;;;;;;;;;5050158;28;20020;-68
2021/03/09 08:58:22;;;;;;;131.27;42.53;;;;;;;;;;5050114;28;20037;-68
2021/03/09 09:00:47;;;;;;;125.03;40.88;;;;;;;;;;5050575;28;20032;-68
2021/03/09 09:03:12;;;;;;;123.65;42.63;;;;;;;;;;5051019;28;20021;-68
2021/03/09 09:05:37;;;;;;;89.95;29.30;;;;;;;;;;5050691;28;20021;-68
2021/03/09 09:08:03;;;;;;;127.07;42.50;;;;;;;;;;5050191;28;20060;-68
2021/03/09 09:10:28;;;;;;;127.80;43.25;;;;;;;;;;5043028;28;20024;-68
2021/03/09 09:12:54;;;;;;;96.82;32.08;;;;;;;;;;5050301;28;20021;-68
2021/03/09 09:15:22;;;;;;;107.60;37.95;;;;;;;;;;5048518;28;20061;-68
2021/03/09 09:17:48;;;;;;;93.43;29.75;;;;;;;;;;5048931;28;20025;-68
2021/03/09 09:20:21;;;;;;;79.22;24.60;;;;;;;;;;5049869;28;20067;-68
2021/03/09 09:22:46;;;;;;;119.82;36.78;;;;;;;;;;5050895;28;20029;-68
2021/03/09 09:25:12;;;;;;;102.55;32.88;;;;;;;;;;5050649;28;20012;-68
2021/03/09 09:27:38;;;;;;;110.75;36.55;;;;;;;;;;5048712;28;20040;-68
2021/03/09 09:30:04;;;;;;;115.65;38.97;;;;;;;;;;5040051;28;20036;-69
2021/03/09 09:32:46;;;;;;;64.70;21.52;;;;;;;;;;5049959;28;20083;-68
2021/03/09 09:35:11;;;;;;;65.18;21.38;;;;;;;;;;5050339;28;20021;-68
2021/03/09 09:37:43;;;;;;;61.15;22.92;;;;;;;;;;5049392;28;20033;-68
2021/03/09 09:40:09;;;;;;;103.78;37.45;;;;;;;;;;5038874;28;20020;-68
2021/03/09 09:42:34;;;;;;;83.43;31.20;;;;;;;;;;5048584;28;20375;-68
2021/03/09 09:44:59;;;;;;;74.40;25.73;;;;;;;;;;5050203;28;20070;-68
2021/03/09 09:47:24;;;;;;;64.85;23.70;;;;;;;;;;5049707;28;20466;-68
2021/03/09 09:49:50;;;;;;;75.43;26.67;;;;;;;;;;5049720;28;20025;-68
2021/03/09 09:52:15;;;;;;;87.35;30.45;;;;;;;;;;5049906;28;20021;-68
2021/03/09 09:54:50;;;;;;;83.05;29.35;;;;;;;;;;5049533;28;20027;-68
2021/03/09 09:57:15;;;;;;;96.15;32.65;;;;;;;;;;5050318;28;20469;-68
2021/03/09 09:59:40;;;;;;;94.00;30.33;;;;;;;;;;5048521;28;20075;-68
2021/03/09 10:02:35;;;;;;;77.40;23.60;;;;;;;;;;5049651;28;20405;-68
2021/03/09 10:05:00;;;;;;;71.20;25.58;;;;;;;;;;5032625;28;20037;-69
2021/03/09 10:07:28;;;;;;;78.10;29.77;;;;;;;;;;5049370;28;20025;-68
2021/03/09 10:09:59;;;;;;;66.95;21.75;;;;;;;;;;5044800;28;20691;-68
2021/03/09 10:12:30;;;;;;;72.40;28.85;;;;;;;;;;5049299;28;20037;-68
2021/03/09 10:14:56;;;;;;;64.85;24.10;;;;;;;;;;5047739;28;20041;-68
2021/03/09 10:17:21;;;;;;;79.47;32.08;;;;;;;;;;5048746;28;20051;-68
2021/03/09 10:19:46;;;;;;;45.13;17.60;;;;;;;;;;5072283;22;20037;-67
2021/03/09 10:22:18;;;;;;;72.15;30.98;;;;;;;;;;5048612;28;20034;-67
2021/03/09 10:24:43;;;;;;;81.18;33.90;;;;;;;;;;5049718;28;20452;-69
2021/03/09 10:27:12;;;;;;;55.53;19.15;;;;;;;;;;5053208;28;20477;-69
2021/03/09 10:29:38;;;;;;;65.43;23.35;;;;;;;;;;5052475;28;20512;-69
2021/03/09 10:32:04;;;;;;;58.80;27.27;;;;;;;;;;5052731;28;20055;-69
2021/03/09 10:34:38;;;;;;;47.63;20.63;;;;;;;;;;5053726;28;20105;-69
2021/03/09 10:37:04;;;;;;;62.35;28.48;;;;;;;;;;5053081;28;20401;-68
2021/03/09 10:39:31;;;;;;;60.00;29.02;;;;;;;;;;5052883;28;20033;-69
2021/03/09 10:41:57;;;;;;;72.68;30.52;;;;;;;;;;5053509;28;20499;-69
2021/03/09 10:44:25;;;;;;;63.95;24.25;;;;;;;;;;5053120;28;20039;-68
2021/03/09 10:46:50;;;;;;;61.35;26.67;;;;;;;;;;5052761;28;20017;-68
2021/03/09 10:49:15;;;;;;;55.05;21.80;;;;;;;;;;5051641;28;20023;-68
2021/03/09 10:51:41;;;;;;;56.75;25.73;;;;;;;;;;5051032;28;21054;-68
2021/03/09 10:54:06;;;;;;;65.30;28.60;;;;;;;;;;5053245;28;20020;-68
2021/03/09 10:56:31;;;;;;;55.78;23.65;;;;;;;;;;5052694;28;20028;-68
2021/03/09 10:58:56;;;;;;;49.05;20.42;;;;;;;;;;5052275;28;20013;-69
2021/03/09 11:01:21;;;;;;;44.40;20.33;;;;;;;;;;5051386;28;20032;-69
2021/03/09 11:03:47;;;;;;;58.50;25.35;;;;;;;;;;5051654;28;20120;-69
2021/03/09 11:06:12;;;;;;;50.03;20.77;;;;;;;;;;5052888;28;20096;-69
2021/03/09 11:08:37;;;;;;;58.20;23.98;;;;;;;;;;5052091;28;20032;-69
2021/03/09 11:11:02;;;;;;;25.45;10.60;;;;;;;;;;5052353;28;20654;-69
2021/03/09 11:13:27;;;;;;;47.78;21.67;;;;;;;;;;5044910;28;20096;-69
2021/03/09 11:15:52;;;;;;;27.40;11.43;;;;;;;;;;5051365;28;20017;-68
2021/03/09 11:18:18;;;;;;;28.80;11.32;;;;;;;;;;5051676;28;20044;-69
2021/03/09 11:20:43;;;;;;;37.10;17.60;;;;;;;;;;5042085;28;20055;-68
2021/03/09 11:23:08;;;;;;;50.83;23.20;;;;;;;;;;5049555;28;20029;-68
2021/03/09 11:25:36;;;;;;;37.83;16.13;;;;;;;;;;5052128;28;20400;-68
2021/03/09 11:28:01;;;;;;;37.63;15.35;;;;;;;;;;5051832;28;20362;-69
2021/03/09 11:30:26;;;;;;;62.58;27.92;;;;;;;;;;5052315;28;20082;-69
2021/03/09 11:32:52;;;;;;;66.88;32.10;;;;;;;;;;5050207;28;20075;-68
2021/03/09 11:35:17;;;;;;;48.40;22.33;;;;;;;;;;5051421;28;20055;-69
2021/03/09 11:37:42;;;;;;;73.32;30.95;;;;;;;;;;5041061;28;20026;-69
2021/03/09 11:40:08;;;;;;;60.10;24.20;;;;;;;;;;5050115;28;20043;-69
2021/03/09 11:42:34;;;;;;;32.35;16.05;;;;;;;;;;5052149;28;20013;-69
2021/03/09 11:44:59;;;;;;;42.28;18.60;;;;;;;;;;5052318;28;20031;-68
2021/03/09 11:47:25;;;;;;;67.03;27.30;;;;;;;;;;5051273;28;20013;-68
2021/03/09 11:49:50;;;;;;;59.03;25.13;;;;;;;;;;5046876;28;20021;-68
2021/03/09 11:52:15;;;;;;;54.67;25.02;;;;;;;;;;5051107;28;20020;-68
2021/03/09 11:54:41;;;;;;;41.35;17.27;;;;;;;;;;5050756;28;20631;-68
2021/03/09 11:57:06;;;;;;;49.63;23.00;;;;;;;;;;5051037;28;20054;-68
2021/03/09 11:59:31;;;;;;;28.67;14.18;;;;;;;;;;5051347;28;20036;-68
2021/03/09 12:01:56;;;;;;;46.17;20.05;;;;;;;;;;5051792;28;20047;-68
2021/03/09 12:04:22;;;;;;;63.00;27.33;;;;;;;;;;5051796;28;20110;-68
2021/03/09 12:06:47;;;;;;;71.80;31.23;;;;;;;;;;5049410;28;20013;-68
2021/03/09 12:09:13;;;;;;;65.60;28.95;;;;;;;;;;5050471;28;20065;-68
2021/03/09 12:11:38;;;;;;;69.93;31.73;;;;;;;;;;5051787;28;20104;-68
2021/03/09 12:14:03;;;;;;;72.40;31.85;;;;;;;;;;5051711;28;20056;-68
2021/03/09 12:16:29;;;;;;;66.03;25.90;;;;;;;;;;5050413;28;20029;-68
2021/03/09 12:18:54;;;;;;;71.53;32.58;;;;;;;;;;5051153;28;20029;-68
2021/03/09 12:21:19;;;;;;;81.43;36.20;;;;;;;;;;5051213;28;20036;-68
2021/03/09 12:23:44;;;;;;;42.78;17.08;;;;;;;;;;5041376;28;20797;-68
2021/03/09 12:26:10;;;;;;;74.43;31.25;;;;;;;;;;5051636;28;20100;-68
2021/03/09 12:28:35;;;;;;;58.15;25.20;;;;;;;;;;5050975;28;20543;-68
2021/03/09 12:31:02;;;;;;;87.10;37.08;;;;;;;;;;5049447;28;20032;-68
2021/03/09 12:33:27;;;;;;;43.97;20.25;;;;;;;;;;5051349;28;20009;-68
2021/03/09 12:35:52;;;;;;;72.65;30.05;;;;;;;;;;5051338;28;20040;-68
2021/03/09 12:38:17;;;;;;;69.63;28.07;;;;;;;;;;5050999;28;20104;-68
2021/03/09 12:40:42;;;;;;;94.55;36.25;;;;;;;;;;5051215;28;20624;-68
2021/03/09 12:43:08;;;;;;;92.22;39.00;;;;;;;;;;5050589;28;20139;-68
2021/03/09 12:45:33;;;;;;;56.50;22.20;;;;;;;;;;5042074;28;20052;-68
2021/03/09 12:47:58;;;;;;;82.10;35.72;;;;;;;;;;5050529;28;20025;-68
2021/03/09 12:50:23;;;;;;;54.05;21.27;;;;;;;;;;5051156;28;20071;-69
2021/03/09 12:52:48;;;;;;;61.13;25.23;;;;;;;;;;5042609;28;20389;-68
2021/03/09 12:55:14;;;;;;;82.95;34.90;;;;;;;;;;5051024;28;20044;-68
2021/03/09 12:57:39;;;;;;;84.78;32.83;;;;;;;;;;5050478;28;20021;-69
2021/03/09 13:00:05;;;;;;;91.38;38.08;;;;;;;;;;5050848;28;20029;-69
2021/03/09 13:02:30;;;;;;;89.25;35.47;;;;;;;;;;5046086;28;20063;-69
2021/03/09 13:04:55;;;;;;;83.93;36.55;;;;;;;;;;5051028;28;20420;-69
2021/03/09 13:07:21;;;;;;;87.07;38.65;;;;;;;;;;5050500;28;20025;-69
2021/03/09 13:09:46;;;;;;;72.32;29.73;;;;;;;;;;5050671;28;20036;-69
2021/03/09 13:12:11;;;;;;;36.85;14.10;;;;;;;;;;5050231;28;20469;-69
2021/03/09 13:14:36;;;;;;;74.50;30.63;;;;;;;;;;5050412;28;20029;-69
2021/03/09 13:17:02;;;;;;;67.50;26.10;;;;;;;;;;5047023;28;20026;-69
2021/03/09 13:19:28;;;;;;;78.47;31.23;;;;;;;;;;5048755;28;20029;-69
2021/03/09 13:21:53;;;;;;;49.63;15.98;;;;;;;;;;5050010;28;20021;-69
2021/03/09 13:24:18;;;;;;;31.63;14.18;;;;;;;;;;5050665;28;20021;-69
2021/03/09 13:26:44;;;;;;;75.65;30.20;;;;;;;;;;5050331;28;20020;-69
2021/03/09 13:29:09;;;;;;;69.85;28.25;;;;;;;;;;5048650;28;20063;-69
2021/03/09 13:31:34;;;;;;;85.38;31.13;;;;;;;;;;5046533;28;20024;-69
2021/03/09 13:33:59;;;;;;;80.00;32.63;;;;;;;;;;5049816;28;20048;-69
2021/03/09 13:36:24;;;;;;;98.97;38.63;;;;;;;;;;5050074;28;20100;-69
2021/03/09 13:38:50;;;;;;;91.18;36.72;;;;;;;;;;5055265;28;20025;-68
2021/03/09 13:41:15;;;;;;;83.03;31.67;;;;;;;;;;5048160;28;20104;-68
2021/03/09 13:43:41;;;;;;;82.43;32.45;;;;;;;;;;5050023;28;20420;-68
2021/03/09 13:46:06;;;;;;;73.05;29.73;;;;;;;;;;5049325;28;20021;-67
2021/03/09 13:48:32;;;;;;;67.07;24.25;;;;;;;;;;5046818;28;20028;-67
2021/03/09 13:50:57;;;;;;;81.13;33.83;;;;;;;;;;5049608;28;20017;-67
2021/03/09 13:53:22;;;;;;;38.13;16.83;;;;;;;;;;5049588;28;20017;-68
2021/03/09 13:55:47;;;;;;;72.18;29.70;;;;;;;;;;5051584;28;20137;-68
2021/03/09 13:58:12;;;;;;;72.47;28.25;;;;;;;;;;5049160;28;20028;-68
2021/03/09 14:00:38;;;;;;;71.43;27.85;;;;;;;;;;5050285;28;20465;-68
2021/03/09 14:03:03;;;;;;;69.72;24.75;;;;;;;;;;5053628;28;20017;-68
2021/03/09 14:05:28;;;;;;;91.20;31.83;;;;;;;;;;5053699;28;20048;-68